sensor_id;sensor_type;location;lat;lon;timestamp;P1;durP1;ratioP1;P2;durP2;ratioP2
76417;SDS011;65250;47.602;19.002;2023-09-18T00:01:20;10.57;;;6.30;;
76417;SDS011;65250;47.602;19.002;2023-09-18T00:03:47;9.90;;;5.82;;
76417;SDS011;65250;47.602;19.002;2023-09-18T00:06:14;9.60;;;6.93;;
76417;SDS011;65250;47.602;19.002;2023-09-18T00:08:42;9.25;;;6.60;;
76417;SDS011;65250;47.602;19.002;2023-09-18T00:11:09;9.27;;;6.78;;
76417;SDS011;65250;47.602;19.002;2023-09-18T00:13:37;7.37;;;5.80;;
76417;SDS011;65250;47.602;19.002;2023-09-18T00:16:04;7.68;;;6.32;;
76417;SDS011;65250;47.602;19.002;2023-09-18T00:18:31;10.82;;;6.35;;
76417;SDS011;65250;47.602;19.002;2023-09-18T00:20:59;7.55;;;6.47;;
76417;SDS011;65250;47.602;19.002;2023-09-18T00:23:26;9.35;;;6.07;;
76417;SDS011;65250;47.602;19.002;2023-09-18T00:25:53;9.03;;;6.37;;
76417;SDS011;65250;47.602;19.002;2023-09-18T00:28:20;9.52;;;6.07;;
76417;SDS011;65250;47.602;19.002;2023-09-18T00:30:48;8.30;;;6.45;;
76417;SDS011;65250;47.602;19.002;2023-09-18T00:33:16;8.35;;;6.80;;
76417;SDS011;65250;47.602;19.002;2023-09-18T00:35:47;9.73;;;6.28;;
76417;SDS011;65250;47.602;19.002;2023-09-18T00:38:14;9.07;;;5.77;;
76417;SDS011;65250;47.602;19.002;2023-09-18T00:40:42;9.27;;;6.20;;
76417;SDS011;65250;47.602;19.002;2023-09-18T00:43:09;11.27;;;6.68;;
76417;SDS011;65250;47.602;19.002;2023-09-18T00:45:41;8.40;;;6.38;;
76417;SDS011;65250;47.602;19.002;2023-09-18T00:48:09;11.95;;;6.25;;
76417;SDS011;65250;47.602;19.002;2023-09-18T00:50:36;7.93;;;6.10;;
76417;SDS011;65250;47.602;19.002;2023-09-18T00:53:04;7.40;;;5.70;;
76417;SDS011;65250;47.602;19.002;2023-09-18T00:55:34;9.32;;;6.00;;
76417;SDS011;65250;47.602;19.002;2023-09-18T00:58:03;8.80;;;6.70;;
76417;SDS011;65250;47.602;19.002;2023-09-18T01:00:31;7.63;;;6.22;;
76417;SDS011;65250;47.602;19.002;2023-09-18T01:02:59;8.47;;;6.37;;
76417;SDS011;65250;47.602;19.002;2023-09-18T01:05:29;8.73;;;5.97;;
76417;SDS011;65250;47.602;19.002;2023-09-18T01:07:59;7.07;;;5.18;;
76417;SDS011;65250;47.602;19.002;2023-09-18T01:10:28;8.38;;;5.88;;
76417;SDS011;65250;47.602;19.002;2023-09-18T01:13:03;7.32;;;5.95;;
76417;SDS011;65250;47.602;19.002;2023-09-18T01:15:37;6.90;;;5.80;;
76417;SDS011;65250;47.602;19.002;2023-09-18T01:18:11;10.02;;;6.30;;
76417;SDS011;65250;47.602;19.002;2023-09-18T01:20:38;9.82;;;6.40;;
76417;SDS011;65250;47.602;19.002;2023-09-18T01:23:05;7.05;;;5.72;;
76417;SDS011;65250;47.602;19.002;2023-09-18T01:25:33;8.50;;;6.10;;
76417;SDS011;65250;47.602;19.002;2023-09-18T01:28:01;10.77;;;5.80;;
76417;SDS011;65250;47.602;19.002;2023-09-18T01:30:28;8.05;;;5.78;;
76417;SDS011;65250;47.602;19.002;2023-09-18T01:32:55;10.57;;;5.95;;
76417;SDS011;65250;47.602;19.002;2023-09-18T01:35:25;9.30;;;6.07;;
76417;SDS011;65250;47.602;19.002;2023-09-18T01:37:56;8.60;;;5.95;;
76417;SDS011;65250;47.602;19.002;2023-09-18T01:40:25;7.70;;;5.20;;
76417;SDS011;65250;47.602;19.002;2023-09-18T01:42:53;8.48;;;5.50;;
76417;SDS011;65250;47.602;19.002;2023-09-18T01:45:19;7.50;;;5.65;;
76417;SDS011;65250;47.602;19.002;2023-09-18T01:47:47;8.30;;;6.40;;
76417;SDS011;65250;47.602;19.002;2023-09-18T01:50:14;9.73;;;6.47;;
76417;SDS011;65250;47.602;19.002;2023-09-18T01:52:41;9.60;;;6.70;;
76417;SDS011;65250;47.602;19.002;2023-09-18T01:55:08;9.55;;;6.40;;
76417;SDS011;65250;47.602;19.002;2023-09-18T01:57:35;7.65;;;5.75;;
76417;SDS011;65250;47.602;19.002;2023-09-18T02:00:03;9.63;;;6.40;;
76417;SDS011;65250;47.602;19.002;2023-09-18T02:02:35;10.32;;;6.70;;
76417;SDS011;65250;47.602;19.002;2023-09-18T02:05:22;8.67;;;5.87;;
76417;SDS011;65250;47.602;19.002;2023-09-18T02:07:50;8.43;;;6.00;;
76417;SDS011;65250;47.602;19.002;2023-09-18T02:10:18;9.50;;;6.20;;
76417;SDS011;65250;47.602;19.002;2023-09-18T02:12:45;11.75;;;6.20;;
76417;SDS011;65250;47.602;19.002;2023-09-18T02:15:13;9.57;;;6.80;;
76417;SDS011;65250;47.602;19.002;2023-09-18T02:17:40;10.43;;;6.40;;
76417;SDS011;65250;47.602;19.002;2023-09-18T02:20:07;10.95;;;6.00;;
76417;SDS011;65250;47.602;19.002;2023-09-18T02:22:38;10.68;;;6.35;;
76417;SDS011;65250;47.602;19.002;2023-09-18T02:25:08;10.65;;;7.30;;
76417;SDS011;65250;47.602;19.002;2023-09-18T02:27:35;8.93;;;6.85;;
76417;SDS011;65250;47.602;19.002;2023-09-18T02:30:02;9.67;;;6.97;;
76417;SDS011;65250;47.602;19.002;2023-09-18T02:32:30;10.07;;;6.57;;
76417;SDS011;65250;47.602;19.002;2023-09-18T02:34:57;10.68;;;7.00;;
76417;SDS011;65250;47.602;19.002;2023-09-18T02:37:25;8.75;;;6.57;;
76417;SDS011;65250;47.602;19.002;2023-09-18T02:39:52;9.32;;;6.60;;
76417;SDS011;65250;47.602;19.002;2023-09-18T02:42:19;7.53;;;5.93;;
76417;SDS011;65250;47.602;19.002;2023-09-18T02:44:46;9.95;;;6.75;;
76417;SDS011;65250;47.602;19.002;2023-09-18T02:47:13;9.57;;;6.80;;
76417;SDS011;65250;47.602;19.002;2023-09-18T02:49:41;11.25;;;6.57;;
76417;SDS011;65250;47.602;19.002;2023-09-18T02:52:08;8.57;;;6.82;;
76417;SDS011;65250;47.602;19.002;2023-09-18T02:54:35;8.50;;;6.40;;
76417;SDS011;65250;47.602;19.002;2023-09-18T02:57:02;9.80;;;6.57;;
76417;SDS011;65250;47.602;19.002;2023-09-18T02:59:29;10.35;;;6.28;;
76417;SDS011;65250;47.602;19.002;2023-09-18T03:01:56;9.90;;;6.70;;
76417;SDS011;65250;47.602;19.002;2023-09-18T03:04:23;9.30;;;6.10;;
76417;SDS011;65250;47.602;19.002;2023-09-18T03:06:50;8.63;;;5.97;;
76417;SDS011;65250;47.602;19.002;2023-09-18T03:09:17;9.20;;;6.55;;
76417;SDS011;65250;47.602;19.002;2023-09-18T03:11:45;8.75;;;6.03;;
76417;SDS011;65250;47.602;19.002;2023-09-18T03:14:12;9.90;;;6.35;;
76417;SDS011;65250;47.602;19.002;2023-09-18T03:16:39;12.10;;;6.65;;
76417;SDS011;65250;47.602;19.002;2023-09-18T03:19:06;15.30;;;6.83;;
76417;SDS011;65250;47.602;19.002;2023-09-18T03:21:33;8.85;;;6.00;;
76417;SDS011;65250;47.602;19.002;2023-09-18T03:24:02;8.63;;;6.18;;
76417;SDS011;65250;47.602;19.002;2023-09-18T03:26:30;8.95;;;6.55;;
76417;SDS011;65250;47.602;19.002;2023-09-18T03:28:56;10.38;;;6.95;;
76417;SDS011;65250;47.602;19.002;2023-09-18T03:31:23;9.90;;;6.90;;
76417;SDS011;65250;47.602;19.002;2023-09-18T03:33:50;9.88;;;7.07;;
76417;SDS011;65250;47.602;19.002;2023-09-18T03:36:17;10.20;;;6.38;;
76417;SDS011;65250;47.602;19.002;2023-09-18T03:38:48;12.38;;;6.68;;
76417;SDS011;65250;47.602;19.002;2023-09-18T03:41:15;10.20;;;7.05;;
76417;SDS011;65250;47.602;19.002;2023-09-18T03:43:42;9.07;;;6.83;;
76417;SDS011;65250;47.602;19.002;2023-09-18T03:46:09;9.30;;;6.95;;
76417;SDS011;65250;47.602;19.002;2023-09-18T03:48:36;10.40;;;6.60;;
76417;SDS011;65250;47.602;19.002;2023-09-18T03:51:04;10.93;;;7.15;;
76417;SDS011;65250;47.602;19.002;2023-09-18T03:53:32;13.32;;;7.30;;
76417;SDS011;65250;47.602;19.002;2023-09-18T03:56:00;9.73;;;6.70;;
76417;SDS011;65250;47.602;19.002;2023-09-18T03:58:27;10.90;;;7.65;;
76417;SDS011;65250;47.602;19.002;2023-09-18T04:00:54;11.18;;;7.10;;
76417;SDS011;65250;47.602;19.002;2023-09-18T04:03:22;8.85;;;6.50;;
76417;SDS011;65250;47.602;19.002;2023-09-18T04:05:49;10.40;;;6.57;;
76417;SDS011;65250;47.602;19.002;2023-09-18T04:08:16;10.80;;;6.57;;
76417;SDS011;65250;47.602;19.002;2023-09-18T04:10:43;10.75;;;7.13;;
76417;SDS011;65250;47.602;19.002;2023-09-18T04:13:11;13.88;;;7.20;;
76417;SDS011;65250;47.602;19.002;2023-09-18T04:15:38;8.98;;;6.88;;
76417;SDS011;65250;47.602;19.002;2023-09-18T04:18:05;11.20;;;6.68;;
76417;SDS011;65250;47.602;19.002;2023-09-18T04:20:32;12.40;;;6.93;;
76417;SDS011;65250;47.602;19.002;2023-09-18T04:25:50;9.07;;;6.75;;
76417;SDS011;65250;47.602;19.002;2023-09-18T04:28:18;8.65;;;6.38;;
76417;SDS011;65250;47.602;19.002;2023-09-18T04:30:46;10.45;;;6.95;;
76417;SDS011;65250;47.602;19.002;2023-09-18T04:33:14;9.97;;;6.97;;
76417;SDS011;65250;47.602;19.002;2023-09-18T04:35:42;7.50;;;5.70;;
76417;SDS011;65250;47.602;19.002;2023-09-18T04:38:10;10.05;;;6.22;;
76417;SDS011;65250;47.602;19.002;2023-09-18T04:40:43;10.10;;;6.82;;
76417;SDS011;65250;47.602;19.002;2023-09-18T04:43:10;10.32;;;6.90;;
76417;SDS011;65250;47.602;19.002;2023-09-18T04:45:37;9.33;;;6.60;;
76417;SDS011;65250;47.602;19.002;2023-09-18T04:48:04;12.38;;;7.25;;
76417;SDS011;65250;47.602;19.002;2023-09-18T04:50:32;8.82;;;6.35;;
76417;SDS011;65250;47.602;19.002;2023-09-18T04:53:01;9.35;;;6.30;;
76417;SDS011;65250;47.602;19.002;2023-09-18T04:55:28;12.63;;;6.93;;
76417;SDS011;65250;47.602;19.002;2023-09-18T04:57:55;9.27;;;6.90;;
76417;SDS011;65250;47.602;19.002;2023-09-18T05:00:24;9.48;;;6.68;;
76417;SDS011;65250;47.602;19.002;2023-09-18T05:02:53;10.85;;;7.35;;
76417;SDS011;65250;47.602;19.002;2023-09-18T05:05:20;9.57;;;7.25;;
76417;SDS011;65250;47.602;19.002;2023-09-18T05:07:47;10.27;;;6.88;;
76417;SDS011;65250;47.602;19.002;2023-09-18T05:10:14;10.20;;;6.87;;
76417;SDS011;65250;47.602;19.002;2023-09-18T05:12:41;8.77;;;6.20;;
76417;SDS011;65250;47.602;19.002;2023-09-18T05:15:09;12.93;;;7.07;;
76417;SDS011;65250;47.602;19.002;2023-09-18T05:17:43;16.08;;;7.07;;
76417;SDS011;65250;47.602;19.002;2023-09-18T05:20:15;9.40;;;6.80;;
76417;SDS011;65250;47.602;19.002;2023-09-18T05:22:44;10.20;;;7.33;;
76417;SDS011;65250;47.602;19.002;2023-09-18T05:25:12;11.70;;;7.50;;
76417;SDS011;65250;47.602;19.002;2023-09-18T05:27:42;9.60;;;6.60;;
76417;SDS011;65250;47.602;19.002;2023-09-18T05:30:13;8.20;;;6.55;;
76417;SDS011;65250;47.602;19.002;2023-09-18T05:32:41;9.95;;;6.50;;
76417;SDS011;65250;47.602;19.002;2023-09-18T05:35:09;11.33;;;7.60;;
76417;SDS011;65250;47.602;19.002;2023-09-18T05:37:37;13.07;;;7.30;;
76417;SDS011;65250;47.602;19.002;2023-09-18T05:40:06;14.48;;;6.63;;
76417;SDS011;65250;47.602;19.002;2023-09-18T05:42:39;12.05;;;6.90;;
76417;SDS011;65250;47.602;19.002;2023-09-18T05:45:11;12.00;;;5.72;;
76417;SDS011;65250;47.602;19.002;2023-09-18T05:47:41;17.43;;;6.47;;
76417;SDS011;65250;47.602;19.002;2023-09-18T05:50:10;19.23;;;6.60;;
76417;SDS011;65250;47.602;19.002;2023-09-18T05:52:43;18.00;;;6.43;;
76417;SDS011;65250;47.602;19.002;2023-09-18T05:55:10;8.52;;;6.35;;
76417;SDS011;65250;47.602;19.002;2023-09-18T05:57:37;24.48;;;6.72;;
76417;SDS011;65250;47.602;19.002;2023-09-18T06:00:05;16.07;;;6.93;;
76417;SDS011;65250;47.602;19.002;2023-09-18T06:02:32;18.75;;;6.70;;
76417;SDS011;65250;47.602;19.002;2023-09-18T06:05:01;22.08;;;6.93;;
76417;SDS011;65250;47.602;19.002;2023-09-18T06:07:29;11.25;;;7.10;;
76417;SDS011;65250;47.602;19.002;2023-09-18T06:09:57;11.18;;;7.05;;
76417;SDS011;65250;47.602;19.002;2023-09-18T06:12:25;10.83;;;5.93;;
76417;SDS011;65250;47.602;19.002;2023-09-18T06:14:53;11.27;;;6.53;;
76417;SDS011;65250;47.602;19.002;2023-09-18T06:17:20;11.60;;;7.55;;
76417;SDS011;65250;47.602;19.002;2023-09-18T06:19:48;10.68;;;7.32;;
76417;SDS011;65250;47.602;19.002;2023-09-18T06:22:15;9.57;;;7.00;;
76417;SDS011;65250;47.602;19.002;2023-09-18T06:24:42;10.70;;;7.27;;
76417;SDS011;65250;47.602;19.002;2023-09-18T06:27:09;9.70;;;6.65;;
76417;SDS011;65250;47.602;19.002;2023-09-18T06:29:38;12.05;;;6.47;;
76417;SDS011;65250;47.602;19.002;2023-09-18T06:32:06;8.77;;;7.13;;
76417;SDS011;65250;47.602;19.002;2023-09-18T06:34:33;10.95;;;6.55;;
76417;SDS011;65250;47.602;19.002;2023-09-18T06:37:00;10.97;;;7.43;;
76417;SDS011;65250;47.602;19.002;2023-09-18T06:39:27;12.38;;;6.63;;
76417;SDS011;65250;47.602;19.002;2023-09-18T06:41:54;11.43;;;6.75;;
76417;SDS011;65250;47.602;19.002;2023-09-18T06:44:21;9.23;;;6.55;;
76417;SDS011;65250;47.602;19.002;2023-09-18T06:46:50;16.92;;;6.68;;
76417;SDS011;65250;47.602;19.002;2023-09-18T06:49:19;11.07;;;7.40;;
76417;SDS011;65250;47.602;19.002;2023-09-18T06:51:46;14.52;;;7.75;;
76417;SDS011;65250;47.602;19.002;2023-09-18T06:54:14;11.77;;;7.40;;
76417;SDS011;65250;47.602;19.002;2023-09-18T06:56:41;9.95;;;7.82;;
76417;SDS011;65250;47.602;19.002;2023-09-18T06:59:11;10.82;;;7.88;;
76417;SDS011;65250;47.602;19.002;2023-09-18T07:01:39;9.70;;;7.33;;
76417;SDS011;65250;47.602;19.002;2023-09-18T07:04:08;13.50;;;6.68;;
76417;SDS011;65250;47.602;19.002;2023-09-18T07:06:36;10.40;;;8.00;;
76417;SDS011;65250;47.602;19.002;2023-09-18T07:09:03;9.55;;;7.38;;
76417;SDS011;65250;47.602;19.002;2023-09-18T07:11:33;9.90;;;7.72;;
76417;SDS011;65250;47.602;19.002;2023-09-18T07:14:01;10.93;;;8.00;;
76417;SDS011;65250;47.602;19.002;2023-09-18T07:16:32;12.65;;;7.45;;
76417;SDS011;65250;47.602;19.002;2023-09-18T07:19:01;8.95;;;7.28;;
76417;SDS011;65250;47.602;19.002;2023-09-18T07:21:31;10.45;;;7.32;;
76417;SDS011;65250;47.602;19.002;2023-09-18T07:24:02;11.32;;;7.60;;
76417;SDS011;65250;47.602;19.002;2023-09-18T07:26:29;11.37;;;7.57;;
76417;SDS011;65250;47.602;19.002;2023-09-18T07:28:56;11.73;;;8.50;;
76417;SDS011;65250;47.602;19.002;2023-09-18T07:31:28;10.35;;;7.82;;
76417;SDS011;65250;47.602;19.002;2023-09-18T07:33:55;11.20;;;7.90;;
76417;SDS011;65250;47.602;19.002;2023-09-18T07:36:23;12.10;;;7.45;;
76417;SDS011;65250;47.602;19.002;2023-09-18T07:38:50;10.17;;;7.27;;
76417;SDS011;65250;47.602;19.002;2023-09-18T07:41:17;11.20;;;7.40;;
76417;SDS011;65250;47.602;19.002;2023-09-18T07:43:46;10.90;;;7.88;;
76417;SDS011;65250;47.602;19.002;2023-09-18T07:46:13;11.60;;;7.78;;
76417;SDS011;65250;47.602;19.002;2023-09-18T07:48:40;10.45;;;7.85;;
76417;SDS011;65250;47.602;19.002;2023-09-18T07:51:10;10.17;;;7.17;;
76417;SDS011;65250;47.602;19.002;2023-09-18T07:53:40;10.60;;;7.75;;
76417;SDS011;65250;47.602;19.002;2023-09-18T07:56:07;10.45;;;6.72;;
76417;SDS011;65250;47.602;19.002;2023-09-18T07:58:35;10.75;;;7.97;;
76417;SDS011;65250;47.602;19.002;2023-09-18T08:01:05;12.85;;;7.80;;
76417;SDS011;65250;47.602;19.002;2023-09-18T08:03:33;10.07;;;6.97;;
76417;SDS011;65250;47.602;19.002;2023-09-18T08:06:00;9.60;;;7.57;;
76417;SDS011;65250;47.602;19.002;2023-09-18T08:08:27;9.00;;;6.75;;
76417;SDS011;65250;47.602;19.002;2023-09-18T08:10:57;10.07;;;7.00;;
76417;SDS011;65250;47.602;19.002;2023-09-18T08:13:28;8.60;;;6.97;;
76417;SDS011;65250;47.602;19.002;2023-09-18T08:15:56;10.27;;;7.10;;
76417;SDS011;65250;47.602;19.002;2023-09-18T08:18:23;8.13;;;6.85;;
76417;SDS011;65250;47.602;19.002;2023-09-18T08:20:54;9.90;;;7.28;;
76417;SDS011;65250;47.602;19.002;2023-09-18T08:23:21;8.48;;;6.88;;
76417;SDS011;65250;47.602;19.002;2023-09-18T08:25:48;9.18;;;6.75;;
76417;SDS011;65250;47.602;19.002;2023-09-18T08:28:17;8.70;;;7.57;;
76417;SDS011;65250;47.602;19.002;2023-09-18T08:30:46;8.25;;;7.18;;
76417;SDS011;65250;47.602;19.002;2023-09-18T08:33:14;12.43;;;6.82;;
76417;SDS011;65250;47.602;19.002;2023-09-18T08:35:41;8.55;;;7.63;;
76417;SDS011;65250;47.602;19.002;2023-09-18T08:38:08;8.80;;;7.00;;
76417;SDS011;65250;47.602;19.002;2023-09-18T08:40:35;11.03;;;7.63;;
76417;SDS011;65250;47.602;19.002;2023-09-18T08:43:02;10.70;;;6.95;;
76417;SDS011;65250;47.602;19.002;2023-09-18T08:45:40;8.57;;;6.85;;
76417;SDS011;65250;47.602;19.002;2023-09-18T08:48:11;11.90;;;6.82;;
76417;SDS011;65250;47.602;19.002;2023-09-18T08:50:38;9.00;;;7.63;;
76417;SDS011;65250;47.602;19.002;2023-09-18T08:53:06;10.27;;;7.37;;
76417;SDS011;65250;47.602;19.002;2023-09-18T08:55:33;9.32;;;7.45;;
76417;SDS011;65250;47.602;19.002;2023-09-18T08:58:00;9.70;;;7.13;;
76417;SDS011;65250;47.602;19.002;2023-09-18T09:00:27;10.30;;;7.45;;
76417;SDS011;65250;47.602;19.002;2023-09-18T09:02:55;8.98;;;6.97;;
76417;SDS011;65250;47.602;19.002;2023-09-18T09:05:24;7.47;;;6.77;;
76417;SDS011;65250;47.602;19.002;2023-09-18T09:07:51;9.00;;;7.18;;
76417;SDS011;65250;47.602;19.002;2023-09-18T09:10:18;8.32;;;6.97;;
76417;SDS011;65250;47.602;19.002;2023-09-18T09:12:46;9.88;;;6.82;;
76417;SDS011;65250;47.602;19.002;2023-09-18T09:15:21;12.75;;;7.50;;
76417;SDS011;65250;47.602;19.002;2023-09-18T09:17:50;8.10;;;7.00;;
76417;SDS011;65250;47.602;19.002;2023-09-18T09:20:18;11.88;;;7.60;;
76417;SDS011;65250;47.602;19.002;2023-09-18T09:22:45;7.97;;;6.90;;
76417;SDS011;65250;47.602;19.002;2023-09-18T09:25:22;7.65;;;6.85;;
76417;SDS011;65250;47.602;19.002;2023-09-18T09:27:53;8.07;;;7.05;;
76417;SDS011;65250;47.602;19.002;2023-09-18T09:30:22;8.73;;;7.50;;
76417;SDS011;65250;47.602;19.002;2023-09-18T09:32:51;8.32;;;7.00;;
76417;SDS011;65250;47.602;19.002;2023-09-18T09:35:21;8.30;;;7.50;;
76417;SDS011;65250;47.602;19.002;2023-09-18T09:37:59;10.23;;;7.65;;
76417;SDS011;65250;47.602;19.002;2023-09-18T09:40:42;7.80;;;7.00;;
76417;SDS011;65250;47.602;19.002;2023-09-18T09:43:10;10.33;;;8.20;;
76417;SDS011;65250;47.602;19.002;2023-09-18T09:45:40;9.60;;;6.93;;
76417;SDS011;65250;47.602;19.002;2023-09-18T09:48:08;8.82;;;6.82;;
76417;SDS011;65250;47.602;19.002;2023-09-18T09:50:43;8.23;;;7.00;;
76417;SDS011;65250;47.602;19.002;2023-09-18T09:53:16;9.98;;;7.13;;
76417;SDS011;65250;47.602;19.002;2023-09-18T09:55:43;8.10;;;6.70;;
76417;SDS011;65250;47.602;19.002;2023-09-18T09:58:11;7.90;;;7.20;;
76417;SDS011;65250;47.602;19.002;2023-09-18T10:00:45;10.32;;;7.45;;
76417;SDS011;65250;47.602;19.002;2023-09-18T10:03:19;8.90;;;7.45;;
76417;SDS011;65250;47.602;19.002;2023-09-18T10:05:49;8.95;;;6.93;;
76417;SDS011;65250;47.602;19.002;2023-09-18T10:08:19;8.27;;;7.33;;
76417;SDS011;65250;47.602;19.002;2023-09-18T10:10:49;7.90;;;6.82;;
76417;SDS011;65250;47.602;19.002;2023-09-18T10:15:48;9.57;;;7.15;;
76417;SDS011;65250;47.602;19.002;2023-09-18T10:18:18;9.70;;;8.00;;
76417;SDS011;65250;47.602;19.002;2023-09-18T10:20:50;8.90;;;7.07;;
76417;SDS011;65250;47.602;19.002;2023-09-18T10:23:20;7.53;;;6.75;;
76417;SDS011;65250;47.602;19.002;2023-09-18T10:26:11;8.00;;;7.22;;
76417;SDS011;65250;47.602;19.002;2023-09-18T10:28:42;9.73;;;7.63;;
76417;SDS011;65250;47.602;19.002;2023-09-18T10:31:10;10.88;;;7.50;;
76417;SDS011;65250;47.602;19.002;2023-09-18T10:33:38;8.90;;;8.00;;
76417;SDS011;65250;47.602;19.002;2023-09-18T10:36:06;8.77;;;7.72;;
76417;SDS011;65250;47.602;19.002;2023-09-18T10:38:34;9.32;;;7.38;;
76417;SDS011;65250;47.602;19.002;2023-09-18T10:41:04;9.80;;;7.40;;
76417;SDS011;65250;47.602;19.002;2023-09-18T10:43:31;8.77;;;7.90;;
76417;SDS011;65250;47.602;19.002;2023-09-18T10:45:58;7.70;;;6.93;;
76417;SDS011;65250;47.602;19.002;2023-09-18T10:48:27;8.25;;;7.45;;
76417;SDS011;65250;47.602;19.002;2023-09-18T10:50:54;8.57;;;7.25;;
76417;SDS011;65250;47.602;19.002;2023-09-18T10:53:25;13.55;;;7.80;;
76417;SDS011;65250;47.602;19.002;2023-09-18T10:55:52;10.77;;;7.75;;
76417;SDS011;65250;47.602;19.002;2023-09-18T10:58:25;9.70;;;7.83;;
76417;SDS011;65250;47.602;19.002;2023-09-18T11:00:54;8.25;;;7.45;;
76417;SDS011;65250;47.602;19.002;2023-09-18T11:03:22;7.95;;;7.25;;
76417;SDS011;65250;47.602;19.002;2023-09-18T11:06:01;7.78;;;6.97;;
76417;SDS011;65250;47.602;19.002;2023-09-18T11:08:30;8.13;;;7.32;;
76417;SDS011;65250;47.602;19.002;2023-09-18T11:11:01;9.50;;;7.60;;
76417;SDS011;65250;47.602;19.002;2023-09-18T11:13:38;9.45;;;8.38;;
76417;SDS011;65250;47.602;19.002;2023-09-18T11:16:16;8.80;;;7.70;;
76417;SDS011;65250;47.602;19.002;2023-09-18T11:18:50;8.82;;;8.02;;
76417;SDS011;65250;47.602;19.002;2023-09-18T11:21:24;9.75;;;8.27;;
76417;SDS011;65250;47.602;19.002;2023-09-18T11:26:35;10.38;;;8.90;;
76417;SDS011;65250;47.602;19.002;2023-09-18T11:29:07;11.90;;;8.65;;
76417;SDS011;65250;47.602;19.002;2023-09-18T11:31:52;9.23;;;8.30;;
76417;SDS011;65250;47.602;19.002;2023-09-18T11:34:21;9.95;;;7.82;;
76417;SDS011;65250;47.602;19.002;2023-09-18T11:36:57;9.53;;;8.63;;
76417;SDS011;65250;47.602;19.002;2023-09-18T11:44:38;9.43;;;8.02;;
76417;SDS011;65250;47.602;19.002;2023-09-18T11:47:17;20.50;;;9.38;;
76417;SDS011;65250;47.602;19.002;2023-09-18T11:49:50;9.87;;;8.67;;
76417;SDS011;65250;47.602;19.002;2023-09-18T11:52:28;8.85;;;7.95;;
76417;SDS011;65250;47.602;19.002;2023-09-18T11:54:57;9.32;;;8.48;;
76417;SDS011;65250;47.602;19.002;2023-09-18T11:57:25;10.55;;;8.63;;
76417;SDS011;65250;47.602;19.002;2023-09-18T11:59:52;10.13;;;8.50;;
76417;SDS011;65250;47.602;19.002;2023-09-18T12:02:27;9.87;;;8.80;;
76417;SDS011;65250;47.602;19.002;2023-09-18T12:04:55;10.77;;;9.77;;
76417;SDS011;65250;47.602;19.002;2023-09-18T12:07:23;10.30;;;9.20;;
76417;SDS011;65250;47.602;19.002;2023-09-18T12:09:53;10.38;;;9.10;;
76417;SDS011;65250;47.602;19.002;2023-09-18T12:12:23;11.23;;;9.27;;
76417;SDS011;65250;47.602;19.002;2023-09-18T12:14:53;12.87;;;9.63;;
76417;SDS011;65250;47.602;19.002;2023-09-18T12:17:20;9.52;;;8.63;;
76417;SDS011;65250;47.602;19.002;2023-09-18T12:19:51;9.73;;;8.93;;
76417;SDS011;65250;47.602;19.002;2023-09-18T12:22:26;9.52;;;8.82;;
76417;SDS011;65250;47.602;19.002;2023-09-18T12:24:53;9.65;;;8.48;;
76417;SDS011;65250;47.602;19.002;2023-09-18T12:27:21;9.70;;;8.57;;
76417;SDS011;65250;47.602;19.002;2023-09-18T12:29:48;9.25;;;8.45;;
76417;SDS011;65250;47.602;19.002;2023-09-18T12:32:15;9.38;;;8.50;;
76417;SDS011;65250;47.602;19.002;2023-09-18T12:34:42;9.93;;;8.60;;
76417;SDS011;65250;47.602;19.002;2023-09-18T12:37:09;10.15;;;9.20;;
76417;SDS011;65250;47.602;19.002;2023-09-18T12:39:39;10.00;;;9.20;;
76417;SDS011;65250;47.602;19.002;2023-09-18T12:42:05;9.82;;;9.02;;
76417;SDS011;65250;47.602;19.002;2023-09-18T12:44:33;9.60;;;8.65;;
76417;SDS011;65250;47.602;19.002;2023-09-18T12:47:00;10.30;;;9.30;;
76417;SDS011;65250;47.602;19.002;2023-09-18T12:49:29;13.32;;;9.05;;
76417;SDS011;65250;47.602;19.002;2023-09-18T12:51:59;9.57;;;8.52;;
76417;SDS011;65250;47.602;19.002;2023-09-18T12:54:42;9.52;;;8.55;;
76417;SDS011;65250;47.602;19.002;2023-09-18T12:57:11;8.90;;;8.00;;
76417;SDS011;65250;47.602;19.002;2023-09-18T12:59:41;9.90;;;8.95;;
76417;SDS011;65250;47.602;19.002;2023-09-18T13:02:08;9.00;;;8.20;;
76417;SDS011;65250;47.602;19.002;2023-09-18T13:04:39;9.32;;;8.52;;
76417;SDS011;65250;47.602;19.002;2023-09-18T13:07:12;8.55;;;7.68;;
76417;SDS011;65250;47.602;19.002;2023-09-18T13:09:40;9.00;;;8.10;;
76417;SDS011;65250;47.602;19.002;2023-09-18T13:12:08;11.27;;;8.77;;
76417;SDS011;65250;47.602;19.002;2023-09-18T13:17:38;10.50;;;9.60;;
76417;SDS011;65250;47.602;19.002;2023-09-18T13:20:08;10.80;;;9.05;;
76417;SDS011;65250;47.602;19.002;2023-09-18T13:22:38;9.45;;;8.35;;
76417;SDS011;65250;47.602;19.002;2023-09-18T13:25:07;9.73;;;8.90;;
76417;SDS011;65250;47.602;19.002;2023-09-18T13:27:35;9.40;;;8.25;;
76417;SDS011;65250;47.602;19.002;2023-09-18T13:30:02;9.67;;;8.70;;
76417;SDS011;65250;47.602;19.002;2023-09-18T13:32:34;12.48;;;9.63;;
76417;SDS011;65250;47.602;19.002;2023-09-18T13:35:06;11.02;;;9.48;;
76417;SDS011;65250;47.602;19.002;2023-09-18T13:37:33;12.80;;;10.10;;
76417;SDS011;65250;47.602;19.002;2023-09-18T13:40:01;10.57;;;9.57;;
76417;SDS011;65250;47.602;19.002;2023-09-18T13:42:29;14.03;;;8.80;;
76417;SDS011;65250;47.602;19.002;2023-09-18T13:44:57;9.13;;;8.00;;
76417;SDS011;65250;47.602;19.002;2023-09-18T13:47:27;10.68;;;9.57;;
76417;SDS011;65250;47.602;19.002;2023-09-18T13:49:55;10.60;;;9.55;;
76417;SDS011;65250;47.602;19.002;2023-09-18T13:52:26;10.80;;;9.20;;
76417;SDS011;65250;47.602;19.002;2023-09-18T13:54:54;8.98;;;8.13;;
76417;SDS011;65250;47.602;19.002;2023-09-18T13:57:21;9.40;;;8.40;;
76417;SDS011;65250;47.602;19.002;2023-09-18T13:59:48;9.20;;;8.43;;
76417;SDS011;65250;47.602;19.002;2023-09-18T14:02:16;10.02;;;8.85;;
76417;SDS011;65250;47.602;19.002;2023-09-18T14:04:44;9.05;;;8.05;;
76417;SDS011;65250;47.602;19.002;2023-09-18T14:07:11;10.55;;;8.07;;
76417;SDS011;65250;47.602;19.002;2023-09-18T14:09:38;8.80;;;7.93;;
76417;SDS011;65250;47.602;19.002;2023-09-18T14:12:06;9.00;;;8.10;;
76417;SDS011;65250;47.602;19.002;2023-09-18T14:14:35;10.35;;;7.97;;
76417;SDS011;65250;47.602;19.002;2023-09-18T14:17:03;9.15;;;8.25;;
76417;SDS011;65250;47.602;19.002;2023-09-18T14:19:32;9.40;;;8.60;;
76417;SDS011;65250;47.602;19.002;2023-09-18T14:22:00;9.70;;;8.70;;
76417;SDS011;65250;47.602;19.002;2023-09-18T14:24:32;9.93;;;7.60;;
76417;SDS011;65250;47.602;19.002;2023-09-18T14:27:01;8.77;;;7.55;;
76417;SDS011;65250;47.602;19.002;2023-09-18T14:29:28;8.27;;;7.45;;
76417;SDS011;65250;47.602;19.002;2023-09-18T14:31:59;11.60;;;7.73;;
76417;SDS011;65250;47.602;19.002;2023-09-18T14:34:26;11.25;;;8.15;;
76417;SDS011;65250;47.602;19.002;2023-09-18T14:36:53;8.18;;;7.00;;
76417;SDS011;65250;47.602;19.002;2023-09-18T14:39:21;11.60;;;7.80;;
76417;SDS011;65250;47.602;19.002;2023-09-18T14:41:48;11.05;;;7.47;;
76417;SDS011;65250;47.602;19.002;2023-09-18T14:44:16;9.77;;;7.10;;
76417;SDS011;65250;47.602;19.002;2023-09-18T14:46:43;9.05;;;7.43;;
76417;SDS011;65250;47.602;19.002;2023-09-18T14:49:10;10.70;;;7.40;;
76417;SDS011;65250;47.602;19.002;2023-09-18T14:51:37;8.60;;;7.20;;
76417;SDS011;65250;47.602;19.002;2023-09-18T14:54:04;8.05;;;7.25;;